Time;durP1;ratioP1;P1;durP2;ratioP2;P2;SDS_P1;SDS_P2;PMS_P1;PMS_P2;Temp;Humidity;BMP_temperature;BMP_pressure;BME280_temperature;BME280_humidity;BME280_pressure;Samples;Min_cycle;Max_cycle;Signal;HPM_P1;HPM_P2
2021/09/16 00:00:00;;;;;;;10.38;3.50;;;;;;;18.43;100.00;98305.84;5024119;28;20029;-65
2021/09/16 00:02:25;;;;;;;6.78;3.85;;;;;;;18.45;100.00;98309.28;5024063;28;20340;-65
2021/09/16 00:04:51;;;;;;;12.38;4.55;;;;;;;18.46;100.00;98298.56;5024079;28;20093;-65
2021/09/16 00:07:16;;;;;;;8.90;3.70;;;;;;;18.46;100.00;98295.88;5023834;28;20337;-65
2021/09/16 00:09:41;;;;;;;7.10;3.92;;;;;;;18.43;100.00;98300.50;5024000;28;20072;-65
2021/09/16 00:12:07;;;;;;;11.18;4.32;;;;;;;18.53;100.00;98304.38;5023967;28;20022;-65
2021/09/16 00:14:32;;;;;;;10.70;3.97;;;;;;;18.43;100.00;98312.03;5023903;28;20029;-65
2021/09/16 00:16:58;;;;;;;9.80;4.13;;;;;;;18.44;100.00;98304.88;5023906;28;20033;-65
2021/09/16 00:19:23;;;;;;;8.25;4.15;;;;;;;18.42;100.00;98309.47;5023862;28;20022;-65
2021/09/16 00:21:48;;;;;;;7.97;4.35;;;;;;;18.41;100.00;98313.06;5023816;28;20022;-65
2021/09/16 00:24:14;;;;;;;8.27;4.63;;;;;;;18.43;100.00;98306.72;5023813;28;20022;-65
2021/09/16 00:26:39;;;;;;;10.70;6.53;;;;;;;18.45;100.00;98310.13;5023844;28;20033;-65
2021/09/16 00:29:09;;;;;;;11.23;5.53;;;;;;;18.47;100.00;98318.03;5023775;28;20198;-65
2021/09/16 00:31:34;;;;;;;9.20;4.70;;;;;;;18.45;100.00;98319.94;5023789;28;20344;-65
2021/09/16 00:34:00;;;;;;;12.57;4.60;;;;;;;18.47;100.00;98312.72;5023808;28;20025;-65
2021/09/16 00:36:25;;;;;;;11.27;5.13;;;;;;;18.52;100.00;98308.00;5023779;28;20049;-65
2021/09/16 00:38:50;;;;;;;13.90;7.00;;;;;;;18.51;100.00;98314.28;5023710;28;20024;-65
2021/09/16 00:41:16;;;;;;;12.73;6.05;;;;;;;18.53;100.00;98309.72;5023725;28;20064;-65
2021/09/16 00:43:41;;;;;;;15.55;6.43;;;;;;;18.50;100.00;98312.53;5023676;28;20022;-65
2021/09/16 00:46:07;;;;;;;14.27;6.50;;;;;;;18.49;100.00;98302.84;5023664;28;20068;-65
2021/09/16 00:48:33;;;;;;;9.23;5.95;;;;;;;18.47;100.00;98312.72;5006054;28;20097;-65
2021/09/16 00:50:58;;;;;;;15.65;7.65;;;;;;;18.49;100.00;98309.03;5023609;28;20081;-65
2021/09/16 00:53:27;;;;;;;12.98;7.25;;;;;;;18.48;100.00;98309.97;5023693;28;20341;-65
2021/09/16 00:55:54;;;;;;;10.95;7.82;;;;;;;18.49;100.00;98305.50;5023584;28;20068;-65
2021/09/16 00:58:21;;;;;;;15.10;7.50;;;;;;;18.44;100.00;98307.56;5006151;28;20026;-65
2021/09/16 01:00:46;;;;;;;12.68;8.50;;;;;;;18.41;100.00;98308.59;5026963;28;20018;-65
2021/09/16 01:03:12;;;;;;;16.05;10.10;;;;;;;18.41;100.00;98319.25;5027027;28;20216;-65
2021/09/16 01:05:38;;;;;;;18.83;9.90;;;;;;;18.40;100.00;98322.88;5027074;28;20052;-65
2021/09/16 01:08:04;;;;;;;15.38;10.15;;;;;;;18.40;100.00;98327.34;5026908;28;20272;-65
2021/09/16 01:10:30;;;;;;;16.52;11.23;;;;;;;18.42;100.00;98330.78;5027007;28;20072;-65
2021/09/16 01:12:55;;;;;;;16.38;11.23;;;;;;;18.44;100.00;98323.53;5026936;28;20029;-65
2021/09/16 01:15:22;;;;;;;17.38;11.43;;;;;;;18.42;100.00;98330.78;5026878;28;20022;-65
2021/09/16 01:17:47;;;;;;;18.17;11.68;;;;;;;18.40;100.00;98328.19;5027065;28;20081;-65
2021/09/16 01:20:13;;;;;;;14.27;10.88;;;;;;;18.44;100.00;98328.88;5026836;28;20372;-65
2021/09/16 01:22:39;;;;;;;16.20;11.82;;;;;;;18.49;100.00;98327.69;5026827;28;20034;-65
2021/09/16 01:25:05;;;;;;;18.40;12.52;;;;;;;18.38;100.00;98334.56;5026684;28;20022;-65
2021/09/16 01:27:31;;;;;;;18.95;12.35;;;;;;;18.32;100.00;98340.19;5026545;28;20033;-65
2021/09/16 01:29:56;;;;;;;13.60;8.95;;;;;;;18.04;100.00;98335.50;5026588;28;20029;-65
2021/09/16 01:32:22;;;;;;;21.58;10.00;;;;;;;17.80;100.00;98327.94;5026548;28;20046;-65
2021/09/16 01:34:48;;;;;;;15.07;9.90;;;;;;;17.72;100.00;98338.16;5026518;28;20084;-65
2021/09/16 01:37:13;;;;;;;17.00;10.63;;;;;;;17.52;100.00;98330.34;5026491;28;20025;-65
2021/09/16 01:39:39;;;;;;;17.83;10.50;;;;;;;17.41;100.00;98337.97;5026426;28;20029;-65
2021/09/16 01:42:05;;;;;;;17.00;10.80;;;;;;;17.33;100.00;98334.88;5026390;28;20124;-65
2021/09/16 01:44:33;;;;;;;21.55;10.73;;;;;;;17.33;100.00;98340.19;5026267;28;20025;-65
2021/09/16 01:47:00;;;;;;;16.85;10.57;;;;;;;17.26;100.00;98331.66;5008748;28;20021;-65
2021/09/16 01:49:25;;;;;;;15.73;11.38;;;;;;;17.07;100.00;98328.19;5026110;28;20026;-65
2021/09/16 01:51:51;;;;;;;18.70;12.07;;;;;;;17.06;100.00;98337.94;5026205;28;20022;-65
2021/09/16 01:54:16;;;;;;;22.58;11.07;;;;;;;17.15;100.00;98348.13;5026141;28;20025;-65
2021/09/16 01:56:41;;;;;;;20.45;10.95;;;;;;;17.18;100.00;98345.31;5026073;28;20093;-65
2021/09/16 01:59:07;;;;;;;16.70;10.70;;;;;;;17.22;100.00;98338.91;5026054;28;20018;-65
2021/09/16 02:01:32;;;;;;;17.20;10.15;;;;;;;17.18;100.00;98337.34;5025983;28;20049;-65
2021/09/16 02:03:58;;;;;;;16.45;10.85;;;;;;;17.16;100.00;98343.69;5025866;28;20215;-65
2021/09/16 02:06:23;;;;;;;15.80;10.88;;;;;;;17.10;100.00;98360.81;5025751;28;20053;-65
2021/09/16 02:08:49;;;;;;;17.88;10.55;;;;;;;17.18;100.00;98368.38;5025824;28;20018;-65
2021/09/16 02:11:15;;;;;;;16.58;11.43;;;;;;;17.08;100.00;98370.66;5024629;28;20089;-65
2021/09/16 02:13:40;;;;;;;23.58;12.30;;;;;;;17.12;100.00;98380.19;5025740;28;20022;-65
2021/09/16 02:16:06;;;;;;;21.63;12.57;;;;;;;17.15;100.00;98368.56;5025763;28;20076;-65
2021/09/16 02:18:31;;;;;;;20.13;13.00;;;;;;;17.08;100.00;98365.34;5025666;28;20400;-65
2021/09/16 02:20:57;;;;;;;17.70;12.15;;;;;;;17.01;100.00;98363.94;5008087;28;20352;-65
2021/09/16 02:23:22;;;;;;;21.33;12.88;;;;;;;16.98;100.00;98366.72;5025565;28;20025;-65
2021/09/16 02:25:48;;;;;;;19.88;12.00;;;;;;;16.97;100.00;98365.03;5025497;28;20033;-65
2021/09/16 02:28:13;;;;;;;19.00;10.20;;;;;;;17.04;100.00;98355.81;5025447;28;20054;-65
2021/09/16 02:30:39;;;;;;;29.13;13.63;;;;;;;17.04;100.00;98361.13;5025439;28;20022;-65
2021/09/16 02:33:04;;;;;;;18.58;12.80;;;;;;;16.99;100.00;98368.44;5025421;28;20125;-65
2021/09/16 02:35:33;;;;;;;19.40;12.93;;;;;;;16.93;100.00;98352.78;5025379;28;20041;-65
2021/09/16 02:38:00;;;;;;;18.73;12.60;;;;;;;16.87;100.00;98353.09;5025308;28;20018;-65
2021/09/16 02:40:26;;;;;;;24.02;13.48;;;;;;;16.87;100.00;98353.09;5025273;28;20018;-65
2021/09/16 02:42:52;;;;;;;24.98;12.57;;;;;;;16.85;100.00;98349.66;5025251;28;20340;-65
2021/09/16 02:45:17;;;;;;;25.83;14.45;;;;;;;16.90;100.00;98352.94;5025132;28;20084;-65
2021/09/16 02:47:43;;;;;;;20.35;12.95;;;;;;;16.84;100.00;98342.59;5025087;28;20021;-65
2021/09/16 02:50:09;;;;;;;22.83;12.95;;;;;;;16.87;100.00;98347.78;5025128;28;20029;-65
2021/09/16 02:52:34;;;;;;;23.95;14.80;;;;;;;16.84;100.00;98347.91;5025004;28;20352;-65
2021/09/16 02:55:00;;;;;;;23.13;14.73;;;;;;;16.84;100.00;98357.72;5025032;28;20115;-65
2021/09/16 02:57:25;;;;;;;18.55;13.52;;;;;;;16.84;100.00;98361.22;5025153;28;20213;-65
2021/09/16 02:59:50;;;;;;;24.55;14.73;;;;;;;16.81;100.00;98353.38;5025149;28;20052;-65
2021/09/16 03:02:16;;;;;;;24.05;15.82;;;;;;;16.81;100.00;98357.88;5024913;28;20029;-65
2021/09/16 03:04:41;;;;;;;21.58;13.95;;;;;;;16.84;100.00;98357.72;5024733;28;20045;-65
2021/09/16 03:07:07;;;;;;;25.50;15.55;;;;;;;16.81;100.00;98353.38;5007234;28;20256;-65
2021/09/16 03:09:32;;;;;;;25.42;15.63;;;;;;;16.77;100.00;98354.47;5024729;28;20029;-65
2021/09/16 03:11:58;;;;;;;24.90;16.05;;;;;;;16.78;100.00;98350.03;5024696;28;20018;-65
2021/09/16 03:14:23;;;;;;;25.02;15.18;;;;;;;16.79;100.00;98344.66;5024685;28;20022;-65
2021/09/16 03:16:49;;;;;;;25.80;15.57;;;;;;;16.79;100.00;98360.59;5024674;28;20056;-65
2021/09/16 03:19:14;;;;;;;23.63;14.85;;;;;;;16.82;100.00;98344.50;5024593;28;20025;-65
2021/09/16 03:21:39;;;;;;;29.30;16.63;;;;;;;16.80;100.00;98346.34;5024146;28;20018;-65
2021/09/16 03:24:05;;;;;;;26.38;17.42;;;;;;;16.81;100.00;98350.72;5024607;28;20375;-65
2021/09/16 03:26:31;;;;;;;25.73;17.52;;;;;;;16.79;100.00;98349.97;5024509;28;20021;-65
2021/09/16 03:28:56;;;;;;;27.27;18.45;;;;;;;16.76;100.00;98349.22;5006964;28;20345;-65
2021/09/16 03:31:22;;;;;;;24.13;16.95;;;;;;;16.80;100.00;98350.84;5024411;28;20021;-65
2021/09/16 03:33:47;;;;;;;29.08;17.98;;;;;;;16.78;100.00;98350.91;5024354;28;20021;-65
2021/09/16 03:36:12;;;;;;;25.35;17.55;;;;;;;16.80;100.00;98356.16;5024330;28;20088;-65
2021/09/16 03:38:38;;;;;;;25.55;16.35;;;;;;;16.80;100.00;98356.16;5024343;28;20026;-65
2021/09/16 03:41:03;;;;;;;27.55;17.00;;;;;;;16.80;100.00;98357.00;5024554;28;20205;-65
2021/09/16 03:43:29;;;;;;;27.45;18.60;;;;;;;16.76;100.00;98371.38;5024204;28;20022;-65
2021/09/16 03:45:54;;;;;;;26.92;19.58;;;;;;;16.74;100.00;98370.56;5024133;28;20021;-65
2021/09/16 03:48:20;;;;;;;31.65;19.10;;;;;;;16.73;100.00;98371.50;5006691;28;20037;-65
2021/09/16 03:50:45;;;;;;;37.13;21.60;;;;;;;16.74;100.00;98367.91;5024126;28;20040;-65
2021/09/16 03:53:11;;;;;;;41.58;21.13;;;;;;;16.75;100.00;98374.97;5024083;28;20021;-65
2021/09/16 03:55:36;;;;;;;29.73;18.83;;;;;;;16.78;100.00;98373.97;5024157;28;20022;-65
2021/09/16 03:58:02;;;;;;;34.90;20.95;;;;;;;16.76;100.00;98376.69;5024082;28;20063;-65
2021/09/16 04:00:27;;;;;;;30.60;20.30;;;;;;;16.73;100.00;98371.50;5023850;28;20105;-65
2021/09/16 04:02:53;;;;;;;36.42;22.30;;;;;;;16.69;100.00;98380.56;5023790;28;20029;-65
2021/09/16 04:05:18;;;;;;;34.78;21.95;;;;;;;16.67;100.00;98374.47;5023849;28;20018;-65
2021/09/16 04:07:44;;;;;;;38.75;22.70;;;;;;;16.65;100.00;98381.63;5023767;28;20065;-65
2021/09/16 04:10:11;;;;;;;37.35;22.80;;;;;;;16.53;100.00;98384.91;5024137;28;20111;-65
2021/09/16 04:12:37;;;;;;;42.00;25.42;;;;;;;16.48;100.00;98386.91;5024279;28;20034;-65
2021/09/16 04:15:06;;;;;;;49.33;26.98;;;;;;;16.44;100.00;98395.94;5024185;28;20041;-65
2021/09/16 04:17:31;;;;;;;45.13;25.60;;;;;;;16.44;100.00;98401.25;5023880;28;20022;-65
2021/09/16 04:19:57;;;;;;;42.28;25.17;;;;;;;16.47;100.00;98406.44;5023915;28;20260;-65
2021/09/16 04:22:22;;;;;;;42.20;24.55;;;;;;;16.47;100.00;98402.91;5023853;28;20021;-65
2021/09/16 04:24:47;;;;;;;43.10;27.15;;;;;;;16.45;100.00;98402.13;5023894;28;20022;-65
2021/09/16 04:27:13;;;;;;;44.42;26.42;;;;;;;16.44;100.00;98409.22;5023880;28;20021;-65
2021/09/16 04:29:40;;;;;;;39.70;25.35;;;;;;;16.47;100.00;98403.78;5023750;28;20256;-65
2021/09/16 04:32:05;;;;;;;42.88;26.77;;;;;;;16.44;100.00;98406.56;5023792;28;20029;-65
2021/09/16 04:34:31;;;;;;;43.00;25.48;;;;;;;16.44;100.00;98417.19;5025787;28;20021;-65
2021/09/16 04:36:56;;;;;;;42.58;24.67;;;;;;;16.45;100.00;98410.94;5027598;28;20085;-65
2021/09/16 04:39:22;;;;;;;47.85;26.42;;;;;;;16.38;100.00;98412.13;5027520;28;20025;-65
2021/09/16 04:41:48;;;;;;;47.33;27.88;;;;;;;16.35;100.00;98406.97;5009079;28;20025;-65
2021/09/16 04:44:13;;;;;;;53.58;29.50;;;;;;;16.37;100.00;98410.41;5026105;28;20089;-65
2021/09/16 04:46:39;;;;;;;51.10;28.95;;;;;;;16.36;100.00;98408.66;5027461;28;20053;-65
2021/09/16 04:49:04;;;;;;;53.60;27.08;;;;;;;16.36;100.00;98418.47;5026522;28;20032;-65
2021/09/16 04:51:31;;;;;;;50.42;28.05;;;;;;;16.32;100.00;98417.72;5027321;28;20218;-65
2021/09/16 04:53:56;;;;;;;47.08;29.33;;;;;;;16.34;100.00;98418.53;5027230;28;20033;-65
2021/09/16 04:56:21;;;;;;;53.97;29.95;;;;;;;16.29;100.00;98425.81;5027243;28;20088;-65
2021/09/16 04:58:47;;;;;;;48.95;28.25;;;;;;;16.30;100.00;98429.34;5027206;28;20025;-65
2021/09/16 05:01:12;;;;;;;55.10;29.00;;;;;;;16.29;100.00;98423.16;5027136;28;20028;-65
2021/09/16 05:03:38;;;;;;;53.97;29.38;;;;;;;16.30;100.00;98430.19;5027089;28;20025;-66
2021/09/16 05:06:03;;;;;;;46.72;28.50;;;;;;;16.32;100.00;98433.66;5026891;28;20026;-66
2021/09/16 05:08:29;;;;;;;47.85;28.70;;;;;;;16.30;100.00;98435.50;5026964;28;20229;-66
2021/09/16 05:10:54;;;;;;;49.90;28.52;;;;;;;16.31;100.00;98436.38;5026902;28;20022;-66
2021/09/16 05:13:19;;;;;;;58.47;27.30;;;;;;;16.34;100.00;98442.44;5026901;28;20022;-67
2021/09/16 05:15:45;;;;;;;51.28;27.02;;;;;;;16.36;100.00;98434.38;5026955;28;20080;-67
2021/09/16 05:18:10;;;;;;;46.53;26.92;;;;;;;16.36;100.00;98429.91;5026811;28;20025;-67
2021/09/16 05:20:36;;;;;;;49.35;26.65;;;;;;;16.37;100.00;98426.34;5026823;28;20022;-67
2021/09/16 05:23:01;;;;;;;42.92;25.95;;;;;;;16.40;100.00;98426.22;5026704;28;20022;-67
2021/09/16 05:25:26;;;;;;;42.83;25.35;;;;;;;16.40;100.00;98431.53;5026732;28;20257;-67
2021/09/16 05:27:52;;;;;;;39.92;24.10;;;;;;;16.41;100.00;98438.56;5026583;28;20045;-67
2021/09/16 05:30:18;;;;;;;43.50;24.85;;;;;;;16.44;100.00;98443.75;5026610;28;20022;-66
2021/09/16 05:32:43;;;;;;;39.58;23.65;;;;;;;16.37;100.00;98447.59;5026483;28;20028;-66
2021/09/16 05:35:10;;;;;;;38.53;23.70;;;;;;;16.39;100.00;98453.69;5026533;28;20025;-65
2021/09/16 05:37:36;;;;;;;43.00;26.02;;;;;;;16.40;100.00;98452.78;5026492;28;20339;-65
2021/09/16 05:40:01;;;;;;;47.03;26.38;;;;;;;16.39;100.00;98455.50;5026393;28;20022;-65
2021/09/16 05:42:27;;;;;;;38.08;24.85;;;;;;;16.39;100.00;98458.16;5026382;28;20026;-66
2021/09/16 05:44:55;;;;;;;38.65;24.02;;;;;;;16.38;100.00;98459.94;5026014;28;20109;-66
2021/09/16 05:47:21;;;;;;;42.38;25.05;;;;;;;16.38;100.00;98454.63;5026255;28;20018;-66
2021/09/16 05:49:46;;;;;;;35.65;23.85;;;;;;;16.42;100.00;98458.88;5026164;28;20250;-66
2021/09/16 05:52:12;;;;;;;36.13;23.40;;;;;;;16.44;100.00;98459.72;5026185;28;20076;-67
2021/09/16 05:54:37;;;;;;;32.45;22.95;;;;;;;16.46;100.00;98463.13;5026141;28;20080;-67
2021/09/16 05:57:03;;;;;;;36.53;22.63;;;;;;;16.47;100.00;98462.22;5008609;28;20037;-67
2021/09/16 05:59:29;;;;;;;41.83;21.73;;;;;;;16.48;100.00;98461.28;5026066;28;20018;-67
2021/09/16 06:01:54;;;;;;;42.03;21.65;;;;;;;16.50;100.00;98470.06;5026044;28;20028;-67
2021/09/16 06:04:19;;;;;;;31.40;20.63;;;;;;;16.51;100.00;98465.59;5025863;28;20080;-67
2021/09/16 06:06:45;;;;;;;38.83;21.33;;;;;;;16.53;100.00;98459.28;5025743;28;20046;-67
2021/09/16 06:09:10;;;;;;;40.78;21.17;;;;;;;16.59;100.00;98466.13;5025780;28;20025;-67
2021/09/16 06:11:36;;;;;;;33.72;19.27;;;;;;;16.62;100.00;98464.19;5025822;28;20093;-67
2021/09/16 06:14:01;;;;;;;32.05;18.73;;;;;;;16.64;100.00;98467.63;5025803;28;20190;-67
2021/09/16 06:16:26;;;;;;;35.70;19.20;;;;;;;16.65;100.00;98472.00;5025746;28;20344;-67
2021/09/16 06:18:52;;;;;;;33.13;18.92;;;;;;;16.68;100.00;98469.19;5008178;28;20033;-67
2021/09/16 06:21:18;;;;;;;30.48;19.33;;;;;;;16.67;100.00;98487.88;5025672;28;20032;-67
2021/09/16 06:23:43;;;;;;;28.67;19.10;;;;;;;16.71;100.00;98484.16;5025714;28;20029;-67
2021/09/16 06:26:09;;;;;;;27.83;18.40;;;;;;;16.69;100.00;98486.88;5025566;28;20030;-67
2021/09/16 06:28:35;;;;;;;31.27;19.75;;;;;;;16.68;100.00;98485.13;5025441;28;20203;-67
2021/09/16 06:31:00;;;;;;;31.58;19.25;;;;;;;16.71;100.00;98489.47;5007963;28;20022;-67
2021/09/16 06:33:26;;;;;;;29.08;18.65;;;;;;;16.71;100.00;98484.16;5025414;28;20022;-67
2021/09/16 06:35:51;;;;;;;36.33;19.17;;;;;;;16.70;100.00;98491.25;5025342;28;20087;-67
2021/09/16 06:38:17;;;;;;;31.42;19.83;;;;;;;16.68;100.00;98485.13;5025355;28;20018;-68
2021/09/16 06:40:42;;;;;;;31.33;19.95;;;;;;;16.67;100.00;98486.06;5025560;28;20248;-68
2021/09/16 06:43:08;;;;;;;35.78;20.45;;;;;;;16.71;100.00;98492.97;5025413;28;20022;-68
2021/09/16 06:45:33;;;;;;;32.08;20.55;;;;;;;16.71;100.00;98490.31;5025186;28;20025;-67
2021/09/16 06:47:59;;;;;;;32.40;19.42;;;;;;;16.71;100.00;98495.63;5025331;28;20053;-67
2021/09/16 06:50:24;;;;;;;34.08;19.73;;;;;;;16.72;100.00;98492.06;5025101;28;20025;-67
2021/09/16 06:52:50;;;;;;;33.83;19.88;;;;;;;16.74;100.00;98499.97;5007528;28;20347;-67
2021/09/16 06:55:16;;;;;;;31.50;17.90;;;;;;;16.69;100.00;98497.50;5025008;28;20359;-67
2021/09/16 06:57:41;;;;;;;27.55;15.07;;;;;;;16.52;100.00;98504.53;5024379;28;20029;-67
2021/09/16 07:00:08;;;;;;;21.80;15.35;;;;;;;16.37;100.00;98519.31;5024967;28;20033;-67
2021/09/16 07:02:34;;;;;;;27.17;14.73;;;;;;;16.18;100.00;98510.44;5024813;28;20064;-67
2021/09/16 07:05:00;;;;;;;23.92;14.85;;;;;;;16.03;100.00;98516.41;5024837;28;20029;-67
2021/09/16 07:07:25;;;;;;;24.67;15.20;;;;;;;15.99;100.00;98525.44;5024688;28;20072;-67
2021/09/16 07:09:50;;;;;;;30.45;15.93;;;;;;;15.96;100.00;98525.56;5024678;28;20032;-67
2021/09/16 07:12:16;;;;;;;32.65;16.38;;;;;;;15.90;100.00;98533.78;5024742;28;20081;-67
2021/09/16 07:14:41;;;;;;;25.08;15.80;;;;;;;15.89;100.00;98524.09;5024698;28;20021;-67
2021/09/16 07:17:07;;;;;;;24.35;15.68;;;;;;;15.88;100.00;98527.66;5024980;28;20033;-67
2021/09/16 07:19:32;;;;;;;26.05;15.45;;;;;;;15.85;100.00;98533.09;5024642;28;20025;-67
2021/09/16 07:21:58;;;;;;;30.00;15.48;;;;;;;15.85;100.00;98533.09;5024631;28;20280;-67
2021/09/16 07:24:23;;;;;;;35.22;15.93;;;;;;;15.87;100.00;98543.66;5024575;28;20237;-67
2021/09/16 07:26:52;;;;;;;23.80;15.93;;;;;;;15.87;100.00;98552.50;5024526;28;20329;-67
2021/09/16 07:29:20;;;;;;;29.38;16.20;;;;;;;15.82;100.00;98553.63;5024393;28;20076;-67
2021/09/16 07:31:46;;;;;;;27.70;16.40;;;;;;;15.81;100.00;98557.16;5006895;28;20025;-67
2021/09/16 07:34:12;;;;;;;28.75;14.77;;;;;;;15.89;100.00;98561.25;5024349;28;20029;-67
2021/09/16 07:36:39;;;;;;;29.77;15.00;;;;;;;15.83;100.00;98563.28;5024347;28;20025;-67
2021/09/16 07:39:05;;;;;;;29.20;16.65;;;;;;;15.78;100.00;98562.59;5024315;28;20018;-67
2021/09/16 07:41:30;;;;;;;29.05;15.35;;;;;;;15.89;100.00;98568.34;5024295;28;20375;-67
2021/09/16 07:43:55;;;;;;;29.42;15.48;;;;;;;15.88;100.00;98572.78;5024219;28;20021;-67
2021/09/16 07:46:21;;;;;;;24.23;15.23;;;;;;;15.92;100.00;98577.06;5024255;28;20068;-67
2021/09/16 07:48:46;;;;;;;23.15;14.18;;;;;;;16.01;100.00;98581.97;5024234;28;20085;-67
2021/09/16 07:51:11;;;;;;;27.17;16.35;;;;;;;16.07;100.00;98580.88;5024222;28;20085;-67
2021/09/16 07:53:37;;;;;;;25.80;17.30;;;;;;;16.09;100.00;98589.63;5024131;28;20056;-67
2021/09/16 07:56:02;;;;;;;30.08;17.63;;;;;;;16.18;100.00;98595.41;5024130;28;20216;-67
2021/09/16 07:58:28;;;;;;;26.83;15.73;;;;;;;16.21;100.00;98595.28;5024069;28;20017;-67
2021/09/16 08:00:53;;;;;;;26.02;14.98;;;;;;;16.26;100.00;98593.28;5024072;28;20313;-67
2021/09/16 08:03:19;;;;;;;29.13;16.55;;;;;;;16.26;100.00;98597.75;5023999;28;20029;-67
2021/09/16 08:05:45;;;;;;;29.42;15.55;;;;;;;16.32;99.85;98598.34;5024052;28;20173;-67
2021/09/16 08:08:11;;;;;;;26.58;16.08;;;;;;;16.42;99.49;98598.81;5007791;28;20037;-67
2021/09/16 08:10:37;;;;;;;22.67;14.88;;;;;;;16.50;98.82;98597.59;5028146;28;20049;-67
2021/09/16 08:13:02;;;;;;;26.05;15.45;;;;;;;16.54;97.77;98599.16;5028065;28;20021;-67
2021/09/16 08:15:28;;;;;;;25.25;14.38;;;;;;;16.57;97.82;98599.03;5028024;28;20178;-67
2021/09/16 08:17:53;;;;;;;29.45;15.23;;;;;;;16.64;98.16;98600.50;5027978;28;20017;-67
2021/09/16 08:20:19;;;;;;;23.45;13.63;;;;;;;16.71;96.83;98590.47;5027941;28;20028;-67
2021/09/16 08:22:45;;;;;;;22.67;14.20;;;;;;;16.72;96.52;98593.06;5027918;28;20333;-67
2021/09/16 08:25:12;;;;;;;25.02;15.05;;;;;;;16.82;95.90;98589.06;5027856;28;20321;-67
2021/09/16 08:27:38;;;;;;;22.52;13.68;;;;;;;16.87;97.29;98587.03;5027720;28;20027;-67
2021/09/16 08:30:05;;;;;;;27.73;16.90;;;;;;;16.89;96.90;98585.19;5027755;28;20025;-67
2021/09/16 08:32:31;;;;;;;26.60;15.00;;;;;;;16.90;95.81;98591.38;5027671;28;20032;-67
2021/09/16 08:34:56;;;;;;;22.58;15.18;;;;;;;16.95;95.93;98603.53;5027672;28;20329;-67
2021/09/16 08:37:22;;;;;;;25.88;14.52;;;;;;;16.99;94.80;98607.75;5027590;28;20021;-67
2021/09/16 08:39:47;;;;;;;23.15;14.30;;;;;;;17.04;93.63;98610.22;5027561;28;20014;-67
2021/09/16 08:42:13;;;;;;;29.45;15.43;;;;;;;17.20;95.64;98612.09;5027526;28;20340;-67
2021/09/16 08:44:42;;;;;;;27.33;14.23;;;;;;;17.20;94.30;98611.22;5027778;28;20026;-67
2021/09/16 08:47:07;;;;;;;30.48;14.73;;;;;;;17.25;94.94;98610.06;5027440;28;20217;-67
2021/09/16 08:49:33;;;;;;;24.65;15.00;;;;;;;17.21;92.77;98608.50;5027337;28;20018;-67
2021/09/16 08:51:58;;;;;;;23.95;14.73;;;;;;;17.21;93.69;98616.47;5027353;28;20022;-67
2021/09/16 08:54:25;;;;;;;26.65;15.63;;;;;;;17.27;95.48;98617.16;5027383;28;20018;-67
2021/09/16 08:56:51;;;;;;;31.25;15.98;;;;;;;17.23;94.70;98614.63;5027242;28;20025;-67
2021/09/16 08:59:17;;;;;;;29.42;15.80;;;;;;;17.38;95.19;98614.84;5027209;28;20221;-67
2021/09/16 09:01:45;;;;;;;23.35;14.93;;;;;;;17.53;93.08;98614.16;5027196;28;20018;-67
2021/09/16 09:04:12;;;;;;;26.52;15.48;;;;;;;17.72;93.24;98615.84;5027292;28;20313;-67
2021/09/16 09:06:38;;;;;;;28.23;14.00;;;;;;;17.81;90.75;98619.91;5009445;28;20092;-67
2021/09/16 09:09:30;;;;;;;21.85;14.55;;;;;;;17.85;91.27;98626.78;5026983;28;20068;-67
2021/09/16 09:12:07;;;;;;;24.42;12.35;;;;;;;17.91;90.95;98630.00;5023298;28;20040;-67
2021/09/16 09:14:41;;;;;;;26.48;13.25;;;;;;;18.03;91.37;98631.22;5026960;28;20021;-67
2021/09/16 09:17:19;;;;;;;26.63;13.60;;;;;;;18.00;90.02;98626.06;5026927;28;20029;-67
2021/09/16 09:19:46;;;;;;;20.27;14.27;;;;;;;18.11;92.45;98627.25;5026145;28;20358;-67
2021/09/16 09:22:11;;;;;;;22.67;13.43;;;;;;;18.19;89.19;98627.72;5026726;28;20025;-67
2021/09/16 09:24:41;;;;;;;22.55;13.27;;;;;;;18.26;88.01;98622.94;5026755;28;20022;-67
2021/09/16 09:27:21;;;;;;;23.58;14.38;;;;;;;18.30;89.33;98635.16;5026934;28;20026;-67
2021/09/16 09:30:16;;;;;;;23.45;14.95;;;;;;;18.12;87.15;98620.09;5026600;28;20048;-67
2021/09/16 09:32:51;;;;;;;25.88;14.57;;;;;;;18.14;87.31;98621.75;5026610;28;20025;-67
2021/09/16 09:35:37;;;;;;;24.70;15.38;;;;;;;18.24;87.86;98631.03;5026518;28;20033;-67
2021/09/16 09:38:21;;;;;;;21.90;14.63;;;;;;;18.40;88.18;98626.69;5008633;28;20069;-67
2021/09/16 09:40:51;;;;;;;27.50;14.35;;;;;;;18.51;88.53;98628.81;5026474;28;20310;-67
2021/09/16 09:43:22;;;;;;;29.58;14.48;;;;;;;18.41;85.64;98636.38;5026408;28;20025;-67
2021/09/16 09:46:07;;;;;;;22.88;13.95;;;;;;;18.53;88.36;98637.56;5008886;28;20049;-67
2021/09/16 09:48:36;;;;;;;20.50;14.68;;;;;;;18.65;87.97;98636.94;5026242;28;20030;-67
2021/09/16 09:51:03;;;;;;;19.30;11.80;;;;;;;18.71;86.14;98636.63;5026244;28;20081;-67
2021/09/16 09:53:29;;;;;;;22.98;14.27;;;;;;;18.56;84.72;98627.63;5026232;28;20091;-67
2021/09/16 09:55:54;;;;;;;20.25;12.73;;;;;;;18.57;85.94;98629.34;5026220;28;20022;-67
2021/09/16 09:58:31;;;;;;;22.58;13.63;;;;;;;18.36;86.65;98632.19;5026144;28;20229;-67
2021/09/16 10:00:56;;;;;;;22.63;14.32;;;;;;;18.40;89.78;98631.13;5026077;28;20029;-67
2021/09/16 10:03:28;;;;;;;23.10;12.60;;;;;;;18.38;88.55;98638.38;5025966;28;20084;-67
2021/09/16 10:06:07;;;;;;;23.98;13.25;;;;;;;18.24;85.76;98640.81;5025989;28;20036;-67
2021/09/16 10:08:33;;;;;;;17.13;11.68;;;;;;;18.31;86.15;98642.22;5025860;28;20105;-67
2021/09/16 10:10:58;;;;;;;28.55;13.98;;;;;;;18.24;87.16;98632.81;5025897;28;20032;-67
2021/09/16 10:13:24;;;;;;;16.73;11.52;;;;;;;18.22;89.47;98643.53;5008338;28;20032;-67
2021/09/16 10:15:51;;;;;;;22.23;13.75;;;;;;;18.19;89.12;98642.84;5025766;28;20028;-67
2021/09/16 10:18:17;;;;;;;22.38;13.32;;;;;;;18.06;88.97;98636.38;5025727;28;20026;-67
2021/09/16 10:20:43;;;;;;;23.80;13.18;;;;;;;18.06;88.88;98636.38;5025713;28;20085;-67
2021/09/16 10:23:09;;;;;;;26.88;13.50;;;;;;;18.08;89.84;98642.50;5025662;28;20076;-67
2021/09/16 10:25:44;;;;;;;26.42;14.13;;;;;;;18.15;90.45;98642.13;5025636;28;20029;-68
2021/09/16 10:28:10;;;;;;;21.58;14.13;;;;;;;18.15;90.60;98638.59;5025533;28;20024;-67
2021/09/16 10:30:46;;;;;;;19.40;13.52;;;;;;;18.09;93.57;98638.88;5025261;28;20025;-67
2021/09/16 10:33:17;;;;;;;28.92;15.23;;;;;;;17.97;92.78;98637.69;5024902;28;20026;-67
2021/09/16 10:36:04;;;;;;;30.30;17.45;;;;;;;17.82;93.53;98637.59;5025539;28;20029;-67
2021/09/16 10:38:38;;;;;;;22.90;14.13;;;;;;;17.79;91.76;98643.06;5025397;28;20085;-67
2021/09/16 10:41:34;;;;;;;23.23;12.15;;;;;;;17.66;89.99;98642.78;5025298;28;20046;-67
2021/09/16 10:43:59;;;;;;;24.50;12.50;;;;;;;17.57;89.48;98631.69;5025260;28;20026;-67
2021/09/16 10:46:37;;;;;;;20.10;13.10;;;;;;;17.50;90.01;98640.91;5025238;28;20026;-67
2021/09/16 10:49:22;;;;;;;18.50;11.82;;;;;;;17.54;89.89;98634.50;5025137;28;20034;-67
2021/09/16 10:51:51;;;;;;;18.52;11.65;;;;;;;17.57;89.72;98642.34;5011356;28;20045;-67
2021/09/16 10:54:23;;;;;;;20.17;11.65;;;;;;;17.55;90.12;98638.88;5025098;28;20049;-67
2021/09/16 10:57:06;;;;;;;19.73;11.30;;;;;;;17.63;89.88;98634.06;5025064;28;20036;-67
2021/09/16 10:59:47;;;;;;;20.80;12.10;;;;;;;17.82;90.24;98640.25;5025053;28;20022;-67
2021/09/16 11:02:15;;;;;;;16.27;10.60;;;;;;;17.84;88.47;98641.06;5024963;28;20360;-67
2021/09/16 11:04:59;;;;;;;16.58;10.20;;;;;;;17.98;86.88;98639.44;5024831;28;20264;-67
2021/09/16 11:07:30;;;;;;;19.23;12.05;;;;;;;18.03;87.64;98636.56;5024713;28;20038;-67
2021/09/16 11:09:56;;;;;;;15.27;10.13;;;;;;;17.96;87.53;98633.31;5024733;28;20018;-67